createdAt,value
2023-02-20T00:00:28.094Z,3.07
2023-02-20T00:01:31.947Z,3.06
2023-02-20T00:02:35.008Z,3.10
2023-02-20T00:03:38.195Z,3.09
2023-02-20T00:04:41.263Z,3.11
2023-02-20T00:05:44.377Z,3.11
2023-02-20T00:06:47.779Z,3.12
2023-02-20T00:07:51.053Z,3.10
2023-02-20T00:08:54.026Z,3.09
2023-02-20T00:09:57.011Z,3.10
2023-02-20T00:11:00.039Z,3.06
2023-02-20T00:12:03.015Z,3.08
2023-02-20T00:13:05.948Z,3.07
2023-02-20T00:14:10.126Z,3.07
2023-02-20T00:15:16.614Z,3.08
2023-02-20T00:16:19.488Z,3.06
2023-02-20T00:17:22.344Z,3.01
2023-02-20T00:18:25.247Z,2.99
2023-02-20T00:19:28.286Z,2.96
2023-02-20T00:20:32.298Z,2.89
2023-02-20T00:21:35.520Z,2.91
2023-02-20T00:22:38.585Z,2.90
2023-02-20T00:23:41.683Z,2.93
2023-02-20T00:24:44.591Z,2.99
2023-02-20T00:25:47.542Z,2.95
2023-02-20T00:26:54.340Z,2.94
2023-02-20T00:27:57.439Z,2.91
2023-02-20T00:29:00.575Z,2.88
2023-02-20T00:30:05.034Z,2.89
2023-02-20T00:31:09.381Z,2.86
2023-02-20T00:32:13.083Z,2.88
2023-02-20T00:33:16.109Z,2.80
2023-02-20T00:34:18.912Z,2.73
2023-02-20T00:35:22.527Z,2.79
2023-02-20T00:36:25.542Z,2.75
2023-02-20T00:37:28.853Z,2.76
2023-02-20T00:38:32.051Z,2.79
2023-02-20T00:39:35.282Z,2.73
2023-02-20T00:40:38.219Z,2.78
2023-02-20T00:41:41.462Z,2.85
2023-02-20T00:42:44.849Z,2.75
2023-02-20T00:43:47.865Z,2.71
2023-02-20T00:44:51.005Z,2.62
2023-02-20T00:45:53.989Z,2.58
2023-02-20T00:46:57.047Z,2.51
2023-02-20T00:48:01.029Z,2.53
2023-02-20T00:49:04.379Z,2.51
2023-02-20T00:50:08.982Z,2.52
2023-02-20T00:51:12.003Z,2.50
2023-02-20T00:52:15.104Z,2.43
2023-02-20T00:53:17.948Z,2.42
2023-02-20T00:54:21.183Z,2.38
2023-02-20T00:55:24.123Z,2.47
2023-02-20T00:56:27.414Z,2.42
2023-02-20T00:57:30.282Z,2.38
2023-02-20T00:58:36.719Z,2.37
2023-02-20T00:59:39.718Z,2.35
2023-02-20T01:00:42.730Z,2.33
2023-02-20T01:01:46.047Z,2.27
2023-02-20T01:02:49.624Z,2.26
2023-02-20T01:03:53.289Z,2.24
2023-02-20T01:04:57.019Z,2.31
2023-02-20T01:05:59.818Z,2.35
2023-02-20T01:07:03.109Z,2.31
2023-02-20T01:08:06.347Z,2.24
2023-02-20T01:09:09.453Z,2.22
2023-02-20T01:10:13.695Z,2.21
2023-02-20T01:11:16.696Z,2.16
2023-02-20T01:12:19.659Z,2.29
2023-02-20T01:13:22.703Z,2.21
2023-02-20T01:14:25.664Z,2.21
2023-02-20T01:15:28.630Z,2.18
2023-02-20T01:16:31.654Z,2.18
2023-02-20T01:17:35.620Z,2.28
2023-02-20T01:18:41.444Z,2.40
2023-02-20T01:19:45.151Z,2.29
2023-02-20T01:20:48.468Z,2.29
2023-02-20T01:21:51.835Z,2.21
2023-02-20T01:22:54.996Z,2.15
2023-02-20T01:23:57.980Z,2.10
2023-02-20T01:25:01.025Z,2.16
2023-02-20T01:26:04.059Z,2.22
2023-02-20T01:27:07.015Z,2.22
2023-02-20T01:28:14.739Z,2.18
2023-02-20T01:29:18.511Z,2.12
2023-02-20T01:30:21.879Z,2.11
2023-02-20T01:31:24.880Z,2.11
2023-02-20T01:32:27.710Z,2.08
2023-02-20T01:33:30.588Z,2.06
2023-02-20T01:34:33.478Z,2.09
2023-02-20T01:35:36.505Z,2.10
2023-02-20T01:36:39.490Z,2.15
2023-02-20T01:37:42.471Z,2.13
2023-02-20T01:38:45.919Z,2.14
2023-02-20T01:39:48.935Z,2.10
2023-02-20T01:40:51.986Z,2.09
2023-02-20T01:42:08.044Z,1.98
2023-02-20T01:43:11.436Z,1.92
2023-02-20T01:44:20.379Z,1.98
2023-02-20T01:45:23.204Z,2.04
2023-02-20T01:46:29.619Z,1.99
2023-02-20T01:47:32.654Z,1.94
2023-02-20T01:48:36.631Z,1.84
2023-02-20T01:49:47.632Z,1.83
2023-02-20T01:50:54.223Z,1.93
2023-02-20T01:52:08.684Z,1.92
2023-02-20T01:53:22.464Z,1.79
2023-02-20T01:54:27.411Z,1.74
2023-02-20T01:55:36.480Z,1.71
2023-02-20T01:56:39.700Z,1.70
2023-02-20T01:57:49.261Z,1.72
2023-02-20T01:58:52.503Z,1.72
2023-02-20T02:00:01.180Z,1.68
2023-02-20T02:01:05.560Z,1.69
2023-02-20T02:02:08.803Z,1.72
2023-02-20T02:03:18.800Z,1.66
2023-02-20T02:04:22.394Z,1.62
2023-02-20T02:05:27.019Z,1.63
2023-02-20T02:06:33.218Z,1.67
2023-02-20T02:07:37.041Z,1.68
2023-02-20T02:08:41.213Z,1.69
2023-02-20T02:09:56.116Z,1.68
2023-02-20T02:11:06.582Z,1.67
2023-02-20T02:12:09.831Z,1.66
2023-02-20T02:13:12.956Z,1.60
2023-02-20T02:14:15.943Z,1.45
2023-02-20T02:15:22.242Z,1.35
2023-02-20T02:16:47.741Z,1.28
2023-02-20T02:18:14.457Z,1.24
2023-02-20T02:19:29.103Z,1.13
2023-02-20T02:21:09.989Z,1.04
2023-02-20T02:22:35.820Z,0.97
2023-02-20T02:24:16.206Z,0.99
2023-02-20T02:25:38.666Z,0.98
2023-02-20T02:27:10.712Z,0.84
2023-02-20T02:28:35.432Z,0.71
2023-02-20T02:29:55.602Z,0.67
2023-02-20T02:31:36.234Z,0.61
2023-02-20T02:33:07.243Z,0.66
2023-02-20T02:34:58.568Z,0.55
2023-02-20T02:36:17.635Z,0.47
2023-02-20T02:37:32.615Z,0.34
2023-02-20T02:38:55.546Z,0.32
2023-02-20T02:40:20.824Z,0.40
2023-02-20T02:41:29.995Z,0.25
2023-02-20T02:43:08.137Z,0.20
2023-02-20T02:44:25.537Z,0.16
2023-02-20T02:45:44.644Z,0.10
2023-02-20T02:46:57.524Z,0.09
2023-02-20T02:48:14.970Z,0.04
2023-02-20T02:49:21.839Z,-0.01
2023-02-20T02:50:30.072Z,-0.02
2023-02-20T02:51:37.940Z,-0.03
2023-02-20T02:52:50.207Z,-0.02
2023-02-20T02:54:29.256Z,-0.04
2023-02-20T02:55:34.088Z,-0.05
2023-02-20T02:56:39.558Z,-0.10
2023-02-20T02:57:42.599Z,-0.08
2023-02-20T02:58:45.723Z,-0.10
2023-02-20T02:59:54.397Z,-0.13
2023-02-20T03:01:02.341Z,-0.14
2023-02-20T03:02:12.716Z,-0.11
2023-02-20T03:03:21.473Z,-0.16
2023-02-20T03:04:27.333Z,-0.18
2023-02-20T03:05:46.634Z,-0.17
2023-02-20T03:06:54.012Z,-0.18
2023-02-20T03:07:58.958Z,-0.18
2023-02-20T03:09:04.272Z,-0.20
2023-02-20T03:10:20.806Z,-0.20
2023-02-20T03:11:26.637Z,-0.20
2023-02-20T03:12:30.708Z,-0.19
2023-02-20T03:13:58.699Z,-0.17
2023-02-20T03:15:34.439Z,-0.20
2023-02-20T03:16:43.421Z,-0.25
2023-02-20T03:18:12.696Z,-0.24
2023-02-20T03:19:23.700Z,-0.24
2023-02-20T03:20:27.508Z,-0.21
2023-02-20T03:21:33.791Z,-0.21
2023-02-20T03:22:42.831Z,-0.18
2023-02-20T03:23:55.817Z,-0.20
2023-02-20T03:25:13.462Z,-0.19
2023-02-20T03:26:22.668Z,-0.20
2023-02-20T03:27:49.837Z,-0.22
2023-02-20T03:29:02.002Z,-0.18
2023-02-20T03:30:12.954Z,-0.16
2023-02-20T03:31:29.741Z,-0.16
2023-02-20T03:32:52.237Z,-0.18
2023-02-20T03:34:24.304Z,-0.17
2023-02-20T03:35:47.078Z,-0.19
2023-02-20T03:37:22.065Z,-0.22
2023-02-20T03:38:48.226Z,-0.22
2023-02-20T03:40:16.259Z,-0.22
2023-02-20T03:41:39.017Z,-0.25
2023-02-20T03:43:06.752Z,-0.29
2023-02-20T03:44:11.668Z,-0.29
2023-02-20T03:45:16.197Z,-0.30
2023-02-20T03:46:23.328Z,-0.31
2023-02-20T03:47:29.592Z,-0.31
2023-02-20T03:48:48.092Z,-0.31
2023-02-20T03:49:55.202Z,-0.30
2023-02-20T03:51:17.120Z,-0.29
2023-02-20T03:52:21.696Z,-0.32
2023-02-20T03:53:25.797Z,-0.33
2023-02-20T03:54:30.444Z,-0.33
2023-02-20T03:55:33.846Z,-0.31
2023-02-20T03:56:42.022Z,-0.24
2023-02-20T03:57:51.067Z,-0.19
2023-02-20T03:58:59.268Z,-0.22
2023-02-20T04:00:33.142Z,-0.25
2023-02-20T04:01:38.377Z,-0.23
2023-02-20T04:02:44.522Z,-0.24
2023-02-20T04:03:50.560Z,-0.27
2023-02-20T04:04:57.503Z,-0.26
2023-02-20T04:06:03.215Z,-0.27
2023-02-20T04:07:12.763Z,-0.23
2023-02-20T04:08:31.920Z,-0.25
2023-02-20T04:09:38.170Z,-0.21
2023-02-20T04:10:46.756Z,-0.21
2023-02-20T04:11:55.838Z,-0.21
2023-02-20T04:13:01.585Z,-0.23
2023-02-20T04:14:05.770Z,-0.22
2023-02-20T04:15:10.331Z,-0.22
2023-02-20T04:16:14.719Z,-0.27
2023-02-20T04:17:25.734Z,-0.25
2023-02-20T04:18:32.887Z,-0.27
2023-02-20T04:19:36.085Z,-0.21
2023-02-20T04:20:41.659Z,-0.23
2023-02-20T04:21:55.633Z,-0.29
2023-02-20T04:23:06.075Z,-0.32
2023-02-20T04:24:14.942Z,-0.36
2023-02-20T04:25:38.224Z,-0.36
2023-02-20T04:26:41.626Z,-0.33
2023-02-20T04:27:44.908Z,-0.36
2023-02-20T04:28:48.906Z,-0.35
2023-02-20T04:29:52.418Z,-0.34
2023-02-20T04:30:55.796Z,-0.34
2023-02-20T04:31:59.315Z,-0.32
2023-02-20T04:33:02.456Z,-0.31
2023-02-20T04:34:05.302Z,-0.30
2023-02-20T04:35:16.015Z,-0.30
2023-02-20T04:36:19.422Z,-0.24
2023-02-20T04:37:22.573Z,-0.21
2023-02-20T04:38:26.023Z,-0.17
2023-02-20T04:39:28.991Z,-0.19
2023-02-20T04:40:32.218Z,-0.11
2023-02-20T04:41:35.201Z,-0.02
2023-02-20T04:42:38.166Z,-0.05
2023-02-20T04:43:41.092Z,-0.03
2023-02-20T04:44:44.082Z,-0.05
2023-02-20T04:45:47.289Z,-0.09
2023-02-20T04:46:50.393Z,-0.04
2023-02-20T04:47:53.293Z,0.02
2023-02-20T04:48:56.621Z,0.00
2023-02-20T04:49:59.935Z,0.02
2023-02-20T04:51:03.335Z,-0.01
2023-02-20T04:52:06.320Z,-0.02
2023-02-20T04:53:09.306Z,-0.04
2023-02-20T04:54:12.192Z,-0.05
2023-02-20T04:55:15.106Z,-0.04
2023-02-20T04:56:19.017Z,-0.05
2023-02-20T04:57:22.655Z,-0.04
2023-02-20T04:58:25.726Z,-0.04
2023-02-20T04:59:28.702Z,-0.02
2023-02-20T05:00:31.638Z,0.00
2023-02-20T05:01:34.941Z,0.00
2023-02-20T05:02:41.463Z,-0.02
2023-02-20T05:03:44.384Z,0.02
2023-02-20T05:04:47.447Z,0.01
2023-02-20T05:05:50.319Z,0.03
2023-02-20T05:06:55.682Z,0.03
2023-02-20T05:08:01.517Z,0.04
2023-02-20T05:09:05.525Z,0.07
2023-02-20T05:10:09.229Z,0.11
2023-02-20T05:11:12.445Z,0.11
2023-02-20T05:12:15.613Z,0.12
2023-02-20T05:13:18.592Z,0.12
2023-02-20T05:14:22.060Z,0.18
2023-02-20T05:15:26.221Z,0.20
2023-02-20T05:16:29.172Z,0.28
2023-02-20T05:17:32.195Z,0.24
2023-02-20T05:18:35.922Z,0.33
2023-02-20T05:19:38.999Z,0.30
2023-02-20T05:21:00.336Z,0.24
2023-02-20T05:22:21.868Z,0.24
2023-02-20T05:23:24.987Z,0.32
2023-02-20T05:24:28.864Z,0.39
2023-02-20T05:25:31.892Z,0.32
2023-02-20T05:26:34.859Z,0.29
2023-02-20T05:27:37.996Z,0.30
2023-02-20T05:28:40.993Z,0.35
2023-02-20T05:29:53.091Z,0.35
2023-02-20T05:30:56.038Z,0.38
2023-02-20T05:31:59.047Z,0.34
2023-02-20T05:33:01.973Z,0.38
2023-02-20T05:34:05.008Z,0.53
2023-02-20T05:35:08.031Z,0.63
2023-02-20T05:36:11.430Z,0.52
2023-02-20T05:37:16.861Z,0.48
2023-02-20T05:38:19.954Z,0.56
2023-02-20T05:39:23.000Z,0.54
2023-02-20T05:40:25.898Z,0.53
2023-02-20T05:41:28.831Z,0.68
2023-02-20T05:42:31.735Z,0.74
2023-02-20T05:43:34.863Z,0.69
2023-02-20T05:44:37.896Z,0.66
2023-02-20T05:45:40.780Z,0.64
2023-02-20T05:46:44.193Z,0.68
2023-02-20T05:47:47.427Z,0.69
2023-02-20T05:48:51.384Z,0.70
2023-02-20T05:49:54.301Z,0.75
2023-02-20T05:50:57.349Z,0.83
2023-02-20T05:52:00.803Z,0.84
2023-02-20T05:53:04.172Z,0.78
2023-02-20T05:54:07.136Z,0.84
2023-02-20T05:55:09.964Z,0.82
2023-02-20T05:56:12.988Z,0.84
2023-02-20T05:57:16.344Z,0.90
2023-02-20T05:58:19.535Z,0.84
2023-02-20T05:59:23.955Z,0.85
2023-02-20T06:00:27.025Z,0.88
2023-02-20T06:01:32.296Z,0.87
2023-02-20T06:02:35.252Z,0.92
2023-02-20T06:03:38.326Z,0.89
2023-02-20T06:04:41.495Z,0.93
2023-02-20T06:05:44.997Z,1.04
2023-02-20T06:06:48.094Z,1.08
2023-02-20T06:07:51.699Z,1.03
2023-02-20T06:08:55.009Z,1.01
2023-02-20T06:09:58.307Z,1.01
2023-02-20T06:11:01.467Z,0.99
2023-02-20T06:12:07.734Z,1.07
2023-02-20T06:13:10.832Z,1.14
2023-02-20T06:14:13.773Z,1.12
2023-02-20T06:15:16.818Z,1.10
2023-02-20T06:16:24.747Z,1.09
2023-02-20T06:17:29.937Z,1.09
2023-02-20T06:18:32.870Z,1.11
2023-02-20T06:19:35.773Z,1.10
2023-02-20T06:20:38.855Z,1.11
2023-02-20T06:21:46.056Z,1.09
2023-02-20T06:22:49.555Z,1.12
2023-02-20T06:23:53.769Z,1.26
2023-02-20T06:24:56.868Z,1.20
2023-02-20T06:25:59.832Z,1.20
2023-02-20T06:27:03.003Z,1.22
2023-02-20T06:28:07.462Z,1.27
2023-02-20T06:29:11.005Z,1.30
2023-02-20T06:30:14.560Z,1.29
2023-02-20T06:31:25.860Z,1.31
2023-02-20T06:32:29.055Z,1.41
2023-02-20T06:33:32.365Z,1.39
2023-02-20T06:34:35.463Z,1.36
2023-02-20T06:35:38.412Z,1.36
2023-02-20T06:36:42.633Z,1.35
2023-02-20T06:37:45.806Z,1.39
2023-02-20T06:38:48.922Z,1.50
2023-02-20T06:39:51.852Z,1.71
2023-02-20T06:40:54.697Z,1.71
2023-02-20T06:41:57.774Z,1.65
2023-02-20T06:43:00.614Z,1.62
2023-02-20T06:44:03.747Z,1.62
2023-02-20T06:45:06.977Z,1.60
2023-02-20T06:46:10.588Z,1.66
2023-02-20T06:47:14.008Z,1.66
2023-02-20T06:48:17.690Z,1.83
2023-02-20T06:49:21.313Z,1.82
2023-02-20T06:50:25.019Z,1.79
2023-02-20T06:51:31.958Z,1.76
2023-02-20T06:52:34.967Z,1.78
2023-02-20T06:53:38.983Z,1.77
2023-02-20T06:54:42.071Z,1.77
2023-02-20T06:55:45.021Z,1.80
2023-02-20T06:56:48.821Z,1.93
2023-02-20T06:57:51.957Z,1.89
2023-02-20T06:58:56.565Z,1.87
2023-02-20T06:59:59.687Z,1.88
2023-02-20T07:01:02.962Z,1.87
2023-02-20T07:02:06.737Z,1.88
2023-02-20T07:03:09.868Z,1.89
2023-02-20T07:04:19.525Z,1.91
2023-02-20T07:05:22.597Z,1.92
2023-02-20T07:06:26.167Z,1.96
2023-02-20T07:07:29.216Z,1.98
2023-02-20T07:08:34.007Z,1.99
2023-02-20T07:09:37.027Z,2.00
2023-02-20T07:10:40.037Z,2.03
2023-02-20T07:11:43.808Z,2.12
2023-02-20T07:12:46.793Z,2.10
2023-02-20T07:13:49.943Z,2.15
2023-02-20T07:14:53.014Z,2.18
2023-02-20T07:15:56.061Z,2.21
2023-02-20T07:16:59.071Z,2.18
2023-02-20T07:18:02.008Z,2.18
2023-02-20T07:19:05.128Z,2.22
2023-02-20T07:20:08.752Z,2.27
2023-02-20T07:21:12.130Z,2.28
2023-02-20T07:22:15.037Z,2.38
2023-02-20T07:23:18.022Z,2.39
2023-02-20T07:24:21.083Z,2.45
2023-02-20T07:25:24.211Z,2.44
2023-02-20T07:26:29.281Z,2.46
2023-02-20T07:27:32.779Z,2.47
2023-02-20T07:28:36.627Z,2.56
2023-02-20T07:29:41.670Z,2.70
2023-02-20T07:30:45.629Z,2.60
2023-02-20T07:31:48.648Z,2.67
2023-02-20T07:32:52.361Z,2.80
2023-02-20T07:33:55.469Z,2.81
2023-02-20T07:35:05.357Z,2.87
2023-02-20T07:36:11.816Z,2.85
2023-02-20T07:37:15.986Z,2.87
2023-02-20T07:38:20.042Z,2.90
2023-02-20T07:39:23.241Z,2.91
2023-02-20T07:40:26.214Z,2.96
2023-02-20T07:41:32.532Z,3.01
2023-02-20T07:42:35.770Z,3.01
2023-02-20T07:43:38.666Z,3.01
2023-02-20T07:44:41.476Z,3.01
2023-02-20T07:45:44.540Z,3.01
2023-02-20T07:46:47.497Z,3.07
2023-02-20T07:47:50.647Z,3.13
2023-02-20T07:48:53.565Z,3.09
2023-02-20T07:49:56.542Z,3.10
2023-02-20T07:50:59.650Z,3.17
2023-02-20T07:52:02.644Z,3.15
2023-02-20T07:53:05.618Z,3.09
2023-02-20T07:54:08.703Z,3.08
2023-02-20T07:55:17.929Z,3.13
2023-02-20T07:56:23.009Z,3.10
2023-02-20T07:57:26.568Z,3.14
2023-02-20T07:58:29.648Z,3.17
2023-02-20T07:59:32.832Z,3.28
2023-02-20T08:00:36.345Z,3.30
2023-02-20T08:01:39.671Z,3.36
2023-02-20T08:02:42.713Z,3.41
2023-02-20T08:03:46.416Z,3.49
2023-02-20T08:04:49.345Z,3.53
2023-02-20T08:05:52.256Z,3.57
2023-02-20T08:06:55.351Z,3.59
2023-02-20T08:07:58.539Z,3.60
2023-02-20T08:09:01.532Z,3.62
2023-02-20T08:10:05.807Z,3.62
2023-02-20T08:11:10.300Z,3.62
2023-02-20T08:12:15.716Z,3.60
2023-02-20T08:13:20.594Z,3.56
2023-02-20T08:14:23.641Z,3.56
2023-02-20T08:15:26.873Z,3.56
2023-02-20T08:16:29.924Z,3.55
2023-02-20T08:17:45.502Z,3.54
2023-02-20T08:18:50.233Z,3.55
2023-02-20T08:19:53.584Z,3.51
2023-02-20T08:20:56.562Z,3.52
2023-02-20T08:21:59.533Z,3.55
2023-02-20T08:23:02.544Z,3.57
2023-02-20T08:24:06.706Z,3.57
2023-02-20T08:25:10.081Z,3.51
2023-02-20T08:26:13.225Z,3.48
2023-02-20T08:27:16.304Z,3.48
2023-02-20T08:28:20.323Z,3.48
2023-02-20T08:29:23.268Z,3.56
2023-02-20T08:30:28.307Z,3.61
2023-02-20T08:31:33.095Z,3.58
2023-02-20T08:32:36.306Z,3.64
2023-02-20T08:33:39.276Z,3.77
2023-02-20T08:34:42.402Z,3.82
2023-02-20T08:35:45.378Z,3.84
2023-02-20T08:36:48.480Z,3.82
2023-02-20T08:37:51.550Z,3.83
2023-02-20T08:38:55.434Z,3.82
2023-02-20T08:39:59.038Z,3.88
2023-02-20T08:41:07.946Z,3.85
2023-02-20T08:42:10.810Z,3.88
2023-02-20T08:43:13.756Z,3.93
2023-02-20T08:44:16.564Z,3.92
2023-02-20T08:45:19.571Z,3.93
2023-02-20T08:46:22.790Z,3.95
2023-02-20T08:47:25.825Z,3.95
2023-02-20T08:48:29.343Z,4.00
2023-02-20T08:49:32.339Z,4.00
2023-02-20T08:50:35.527Z,4.02
2023-02-20T08:51:38.408Z,4.08
2023-02-20T08:52:43.771Z,4.14
2023-02-20T08:53:46.959Z,4.20
2023-02-20T08:54:50.176Z,4.26
2023-02-20T08:55:53.232Z,4.27
2023-02-20T08:56:56.551Z,4.24
2023-02-20T08:57:59.614Z,4.25
2023-02-20T08:59:02.596Z,4.24
2023-02-20T09:00:06.870Z,4.31
2023-02-20T09:01:09.959Z,4.31
2023-02-20T09:02:21.019Z,4.36
2023-02-20T09:03:24.143Z,4.41
2023-02-20T09:04:27.170Z,4.44
2023-02-20T09:05:30.216Z,4.48
2023-02-20T09:06:33.131Z,4.59
2023-02-20T09:07:36.126Z,4.65
2023-02-20T09:08:39.616Z,4.67
2023-02-20T09:09:43.108Z,4.70
2023-02-20T09:10:46.550Z,4.75
2023-02-20T09:11:49.599Z,4.83
2023-02-20T09:12:52.916Z,4.95
2023-02-20T09:13:56.212Z,5.01
2023-02-20T09:15:02.627Z,5.07
2023-02-20T09:16:10.047Z,5.10
2023-02-20T09:17:13.074Z,5.18
2023-02-20T09:18:16.366Z,5.23
2023-02-20T09:19:19.443Z,5.28
2023-02-20T09:20:23.358Z,5.33
2023-02-20T09:21:28.272Z,5.33
2023-02-20T09:22:31.523Z,5.39
2023-02-20T09:23:34.627Z,5.41
2023-02-20T09:24:37.612Z,5.42
2023-02-20T09:25:40.650Z,5.41
2023-02-20T09:26:43.734Z,5.46
2023-02-20T09:27:46.984Z,5.47
2023-02-20T09:28:50.035Z,5.47
2023-02-20T09:29:53.399Z,5.49
2023-02-20T09:30:57.933Z,5.48
2023-02-20T09:32:01.203Z,5.52
2023-02-20T09:33:04.851Z,5.52
2023-02-20T09:34:07.885Z,5.58
2023-02-20T09:35:17.838Z,5.64
2023-02-20T09:36:20.961Z,5.62
2023-02-20T09:37:25.013Z,5.61
2023-02-20T09:38:29.909Z,5.62
2023-02-20T09:39:35.400Z,5.69
2023-02-20T09:40:38.920Z,5.79
2023-02-20T09:41:41.882Z,5.89
2023-02-20T09:43:13.813Z,5.90
2023-02-20T09:44:25.818Z,5.90
2023-02-20T09:45:33.347Z,5.81
2023-02-20T09:46:37.477Z,5.77
2023-02-20T09:47:59.075Z,5.76
2023-02-20T09:49:11.421Z,5.74
2023-02-20T09:50:23.425Z,5.82
2023-02-20T09:51:30.557Z,5.94
2023-02-20T09:52:40.411Z,5.94
2023-02-20T09:53:49.108Z,6.00
2023-02-20T09:55:01.625Z,6.06
2023-02-20T09:56:11.779Z,6.05
2023-02-20T09:57:29.523Z,6.08
2023-02-20T09:58:57.149Z,6.19
2023-02-20T10:00:06.485Z,6.27
2023-02-20T10:01:13.970Z,6.38
2023-02-20T10:02:23.656Z,6.40
2023-02-20T10:03:30.930Z,6.37
2023-02-20T10:04:52.273Z,6.39
2023-02-20T10:06:10.233Z,6.47
2023-02-20T10:07:26.643Z,6.52
2023-02-20T10:08:30.380Z,6.62
2023-02-20T10:09:33.436Z,6.63
2023-02-20T10:10:39.441Z,6.65
2023-02-20T10:11:54.355Z,6.67
2023-02-20T10:13:13.841Z,6.73
2023-02-20T10:14:49.816Z,6.77
2023-02-20T10:16:34.593Z,6.74
2023-02-20T10:18:08.200Z,6.77
2023-02-20T10:19:11.038Z,6.85
2023-02-20T10:20:33.901Z,6.90
2023-02-20T10:21:49.803Z,6.92
2023-02-20T10:23:29.674Z,7.02
2023-02-20T10:25:08.771Z,7.03
2023-02-20T10:26:24.243Z,7.04
2023-02-20T10:27:49.184Z,7.05
2023-02-20T10:28:52.599Z,7.14
2023-02-20T10:29:57.893Z,7.09
2023-02-20T10:31:22.714Z,7.09
2023-02-20T10:32:43.712Z,7.07
2023-02-20T10:33:53.252Z,7.07
2023-02-20T10:35:02.866Z,7.19
2023-02-20T10:36:31.086Z,7.21
2023-02-20T10:37:50.256Z,7.18
2023-02-20T10:39:08.559Z,7.11
2023-02-20T10:40:30.918Z,7.19
2023-02-20T10:41:56.916Z,7.12
2023-02-20T10:43:05.914Z,7.12
2023-02-20T10:44:14.902Z,7.17
2023-02-20T10:45:28.515Z,7.12
2023-02-20T10:46:48.048Z,7.09
2023-02-20T10:48:03.042Z,7.07
2023-02-20T10:49:12.136Z,7.10
2023-02-20T10:50:17.509Z,7.13
2023-02-20T10:51:28.870Z,7.17
2023-02-20T10:52:42.961Z,7.18
2023-02-20T10:53:50.707Z,7.20
2023-02-20T10:55:03.867Z,7.19
2023-02-20T10:56:37.564Z,7.28
2023-02-20T10:57:50.364Z,7.36
2023-02-20T10:59:24.132Z,7.46
2023-02-20T11:00:44.104Z,7.54
2023-02-20T11:01:54.677Z,7.57
2023-02-20T11:03:20.635Z,7.67
2023-02-20T11:04:31.653Z,7.80
2023-02-20T11:05:41.616Z,7.84
2023-02-20T11:06:54.937Z,7.99
2023-02-20T11:07:58.889Z,8.08
2023-02-20T11:09:01.969Z,8.08
2023-02-20T11:10:05.958Z,8.08
2023-02-20T11:11:30.338Z,8.08
2023-02-20T11:12:53.758Z,8.17
2023-02-20T11:13:59.425Z,8.15
2023-02-20T11:15:10.114Z,8.30
2023-02-20T11:16:23.469Z,8.39
2023-02-20T11:17:30.846Z,8.39
2023-02-20T11:18:38.985Z,8.44
2023-02-20T11:19:55.282Z,8.48
2023-02-20T11:20:58.288Z,8.53
2023-02-20T11:22:01.299Z,8.65
2023-02-20T11:23:04.886Z,8.64
2023-02-20T11:24:33.190Z,8.66
2023-02-20T11:25:42.516Z,8.67
2023-02-20T11:26:48.645Z,8.69
2023-02-20T11:27:56.690Z,8.80
2023-02-20T11:29:02.764Z,8.82
2023-02-20T11:30:27.214Z,8.90
2023-02-20T11:31:30.670Z,8.97
2023-02-20T11:32:37.763Z,9.04
2023-02-20T11:33:48.287Z,9.11
2023-02-20T11:35:27.024Z,9.09
2023-02-20T11:36:39.753Z,9.12
2023-02-20T11:37:54.449Z,9.08
2023-02-20T11:39:06.274Z,9.08
2023-02-20T11:40:18.148Z,9.15
2023-02-20T11:41:32.608Z,9.22
2023-02-20T11:42:36.797Z,9.25
2023-02-20T11:44:00.524Z,9.23
2023-02-20T11:45:16.937Z,9.21
2023-02-20T11:46:21.873Z,9.33
2023-02-20T11:47:28.886Z,9.36
2023-02-20T11:48:31.899Z,9.46
2023-02-20T11:49:34.978Z,9.53
2023-02-20T11:50:49.157Z,9.60
2023-02-20T11:51:52.035Z,9.63
2023-02-20T11:53:07.792Z,9.68
2023-02-20T11:54:21.710Z,9.68
2023-02-20T11:55:27.710Z,9.79
2023-02-20T11:56:30.864Z,9.82
2023-02-20T11:57:39.001Z,9.85
2023-02-20T11:58:43.976Z,9.88
2023-02-20T11:59:48.962Z,9.87
2023-02-20T12:00:54.483Z,9.96
2023-02-20T12:02:10.885Z,9.95
2023-02-20T12:03:20.794Z,10.08
2023-02-20T12:04:25.524Z,10.11
2023-02-20T12:05:43.265Z,10.15
2023-02-20T12:06:46.295Z,10.16
2023-02-20T12:07:52.255Z,10.16
2023-02-20T12:08:57.348Z,10.19
2023-02-20T12:10:47.635Z,10.20
2023-02-20T12:11:55.902Z,10.25
2023-02-20T12:12:59.289Z,10.24
2023-02-20T12:14:02.232Z,10.25
2023-02-20T12:15:12.790Z,10.31
2023-02-20T12:16:18.855Z,10.36
2023-02-20T12:17:46.215Z,10.45
2023-02-20T12:19:19.227Z,10.53
2023-02-20T12:20:26.588Z,10.66
2023-02-20T12:21:51.101Z,10.79
2023-02-20T12:23:09.659Z,10.88
2023-02-20T12:24:54.583Z,10.93
2023-02-20T12:26:19.590Z,10.90
2023-02-20T12:27:52.692Z,10.86
2023-02-20T12:29:04.162Z,10.98
2023-02-20T12:30:44.860Z,11.15
2023-02-20T12:31:53.022Z,11.09
2023-02-20T12:33:33.626Z,11.12
2023-02-20T12:34:59.984Z,11.22
2023-02-20T12:36:18.387Z,11.20
2023-02-20T12:37:49.690Z,11.16
2023-02-20T12:39:03.322Z,11.10
2023-02-20T12:40:25.607Z,11.03
2023-02-20T12:41:57.934Z,10.98
2023-02-20T12:43:22.858Z,10.94
2023-02-20T12:44:30.692Z,10.95
2023-02-20T12:45:59.409Z,10.92
2023-02-20T12:47:29.743Z,10.91
2023-02-20T12:49:10.109Z,10.84
2023-02-20T12:50:34.341Z,10.75
2023-02-20T12:51:54.265Z,10.74
2023-02-20T12:53:12.862Z,10.69
2023-02-20T12:54:40.785Z,10.72
2023-02-20T12:55:55.565Z,10.75
2023-02-20T12:57:22.491Z,10.81
2023-02-20T12:58:32.444Z,10.88
2023-02-20T12:59:46.844Z,10.95
2023-02-20T13:01:03.747Z,10.96
2023-02-20T13:02:41.036Z,11.01
2023-02-20T13:03:57.402Z,11.00
2023-02-20T13:05:02.581Z,11.01
2023-02-20T13:06:06.192Z,11.03
2023-02-20T13:07:21.876Z,11.05
2023-02-20T13:08:33.545Z,11.02
2023-02-20T13:09:39.147Z,11.05
2023-02-20T13:10:58.789Z,11.09
2023-02-20T13:12:06.767Z,11.09
2023-02-20T13:13:11.312Z,11.04
2023-02-20T13:14:14.400Z,11.11
2023-02-20T13:15:31.811Z,11.06
2023-02-20T13:16:44.829Z,11.07
2023-02-20T13:17:57.405Z,11.14
2023-02-20T13:19:16.820Z,11.13
2023-02-20T13:20:24.465Z,11.15
2023-02-20T13:21:30.936Z,11.12
2023-02-20T13:22:34.045Z,11.13
2023-02-20T13:23:40.013Z,11.09
2023-02-20T13:24:44.729Z,11.10
2023-02-20T13:25:49.626Z,11.10
2023-02-20T13:26:56.190Z,11.06
2023-02-20T13:28:27.552Z,11.13
2023-02-20T13:29:32.224Z,11.07
2023-02-20T13:30:35.466Z,11.13
2023-02-20T13:31:39.108Z,11.09
2023-02-20T13:32:45.871Z,11.04
2023-02-20T13:33:51.652Z,11.06
2023-02-20T13:35:00.856Z,11.05
2023-02-20T13:36:05.807Z,11.04
2023-02-20T13:37:37.867Z,11.06
2023-02-20T13:38:41.719Z,11.09
2023-02-20T13:39:45.530Z,11.05
2023-02-20T13:40:57.190Z,11.01
2023-02-20T13:42:04.864Z,11.08
2023-02-20T13:43:16.867Z,11.22
2023-02-20T13:44:28.940Z,11.18
2023-02-20T13:45:43.368Z,11.19
2023-02-20T13:47:22.221Z,11.20
2023-02-20T13:48:30.810Z,11.19
2023-02-20T13:49:52.866Z,11.23
2023-02-20T13:51:14.608Z,11.25
2023-02-20T13:52:42.961Z,11.32
2023-02-20T13:54:22.763Z,11.41
2023-02-20T13:55:27.726Z,11.42
2023-02-20T13:56:39.816Z,11.42
2023-02-20T13:57:50.153Z,11.30
2023-02-20T13:58:57.693Z,11.25
2023-02-20T14:00:18.989Z,11.24
2023-02-20T14:01:22.608Z,11.19
2023-02-20T14:02:30.455Z,11.26
2023-02-20T14:03:34.919Z,11.21
2023-02-20T14:04:38.558Z,11.15
2023-02-20T14:05:41.734Z,11.16
2023-02-20T14:06:59.194Z,11.08
2023-02-20T14:08:02.468Z,11.03
2023-02-20T14:09:11.128Z,11.01
2023-02-20T14:10:18.886Z,10.93
2023-02-20T14:11:35.682Z,10.91
2023-02-20T14:12:38.957Z,10.90
2023-02-20T14:13:51.387Z,11.32
2023-02-20T14:14:56.094Z,11.32
2023-02-20T14:16:00.289Z,10.82
2023-02-20T14:17:16.130Z,10.77
2023-02-20T14:18:30.432Z,10.83
2023-02-20T14:19:38.506Z,10.76
2023-02-20T14:20:42.734Z,10.80
2023-02-20T14:21:45.799Z,10.80
2023-02-20T14:22:50.925Z,10.76
2023-02-20T14:23:54.187Z,10.81
2023-02-20T14:25:12.500Z,10.75
2023-02-20T14:26:34.984Z,10.82
2023-02-20T14:27:39.155Z,10.78
2023-02-20T14:28:47.196Z,10.76
2023-02-20T14:30:18.264Z,10.84
2023-02-20T14:31:34.080Z,10.90
2023-02-20T14:32:37.801Z,11.02
2023-02-20T14:33:40.680Z,11.06
2023-02-20T14:35:12.675Z,11.17
2023-02-20T14:36:40.765Z,11.23
2023-02-20T14:37:59.184Z,11.34
2023-02-20T14:39:20.800Z,11.44
2023-02-20T14:40:39.473Z,11.42
2023-02-20T14:41:55.538Z,11.45
2023-02-20T14:43:04.277Z,11.50
2023-02-20T14:44:18.706Z,11.60
2023-02-20T14:45:26.912Z,11.52
2023-02-20T14:46:37.273Z,11.43
2023-02-20T14:47:55.029Z,11.41
2023-02-20T14:49:25.949Z,11.35
2023-02-20T14:50:30.367Z,11.29
2023-02-20T14:51:33.992Z,11.24
2023-02-20T14:52:37.040Z,11.25
2023-02-20T14:53:40.662Z,11.27
2023-02-20T14:54:45.013Z,11.33
2023-02-20T14:55:51.381Z,11.33
2023-02-20T14:56:54.452Z,11.28
2023-02-20T14:57:57.785Z,11.24
2023-02-20T14:59:17.299Z,11.16
2023-02-20T15:00:23.965Z,11.14
2023-02-20T15:01:27.874Z,11.09
2023-02-20T15:02:39.630Z,11.05
2023-02-20T15:03:43.254Z,11.01
2023-02-20T15:04:55.658Z,10.96